Terminal Aerodrome Forecast
Issued by NWS

Home | Current Version | Previous Version | Graphics & Text | Print | Product List | Glossary On
Versions: 1 2 3 4 5 6 7 8 9 10 11 12 13 14 15
000
FTUS43 KGRB 282200 AAC
TAFMTW
TAF AMD
KMTW 282212Z 2822/2918 30008KT P6SM -SN SCT025 BKN040
      TEMPO 2823/2903 5SM -SN BKN025
     FM290500 34007KT P6SM SCT070 BKN250
     FM291300 34006KT P6SM SCT025 BKN100=

USA.gov is the U.S. government's official web portal to all federal, state and local government web resources and services.